Time;durP1;ratioP1;P1;durP2;ratioP2;P2;SDS_P1;SDS_P2;PMS_P1;PMS_P2;Temp;Humidity;BMP_temperature;BMP_pressure;BME280_temperature;BME280_humidity;BME280_pressure;Samples;Min_cycle;Max_cycle;Signal;HPM_P1;HPM_P2
2022/02/20 00:01:09;;;;;;;0.93;0.90;;;7.10;89.80;;;;;;5095116;28;20173;-65
2022/02/20 00:03:35;;;;;;;5.50;1.80;;;7.00;90.00;;;;;;5094327;28;20264;-68
2022/02/20 00:06:02;;;;;;;1.33;0.83;;;7.00;89.60;;;;;;5094947;28;20434;-63
2022/02/20 00:08:28;;;;;;;1.00;1.00;;;7.00;90.40;;;;;;5094842;28;20174;-66
2022/02/20 00:10:54;;;;;;;0.93;0.90;;;7.00;91.10;;;;;;5094930;28;20619;-67
2022/02/20 00:13:19;;;;;;;0.80;0.43;;;7.00;91.60;;;;;;5094639;28;20223;-64
2022/02/20 00:15:45;;;;;;;1.00;0.87;;;7.00;91.90;;;;;;5094694;28;20183;-64
2022/02/20 00:18:11;;;;;;;1.70;0.80;;;7.00;92.10;;;;;;5094978;28;20193;-64
2022/02/20 00:20:36;;;;;;;0.53;0.53;;;7.00;92.40;;;;;;5094770;28;20181;-64
2022/02/20 00:23:04;;;;;;;0.80;0.80;;;6.90;92.60;;;;;;5094441;28;20172;-65
2022/02/20 00:25:31;;;;;;;0.77;0.70;;;6.90;92.90;;;;;;5094458;28;20192;-68
2022/02/20 00:28:00;;;;;;;0.70;0.47;;;6.80;93.20;;;;;;5094732;28;20199;-64
2022/02/20 00:30:26;;;;;;;7.13;0.85;;;6.80;93.60;;;;;;5094436;28;20205;-65
2022/02/20 00:32:52;;;;;;;3.13;1.13;;;6.80;93.80;;;;;;5094241;28;20308;-65
2022/02/20 00:35:18;;;;;;;2.05;0.45;;;6.70;94.10;;;;;;5094384;28;20682;-68
2022/02/20 00:37:44;;;;;;;3.10;1.00;;;6.70;94.20;;;;;;5094290;28;20175;-64
2022/02/20 00:40:10;;;;;;;4.10;0.80;;;6.70;94.20;;;;;;5094655;28;20195;-68
2022/02/20 00:42:36;;;;;;;1.60;1.50;;;6.60;94.40;;;;;;5094461;28;20170;-65
2022/02/20 00:45:02;;;;;;;1.47;0.77;;;6.60;94.40;;;;;;5092606;28;20190;-66
2022/02/20 00:47:27;;;;;;;2.20;1.20;;;6.60;94.40;;;;;;5094237;28;20212;-65
2022/02/20 00:49:53;;;;;;;0.70;0.70;;;6.60;94.50;;;;;;5094186;28;20225;-65
2022/02/20 00:52:18;;;;;;;0.60;0.60;;;6.60;94.60;;;;;;5093956;28;20660;-67
2022/02/20 00:54:44;;;;;;;2.40;0.97;;;6.60;95.00;;;;;;5093729;28;20191;-64
2022/02/20 00:57:10;;;;;;;0.83;0.50;;;6.60;95.20;;;;;;5094041;28;20175;-68
2022/02/20 00:59:35;;;;;;;1.07;0.70;;;6.60;95.40;;;;;;5094148;28;20169;-63
2022/02/20 01:02:01;;;;;;;1.03;0.93;;;6.60;95.70;;;;;;5093992;28;20164;-67
2022/02/20 01:04:27;;;;;;;2.00;0.60;;;6.50;95.90;;;;;;5093272;28;20302;-64
2022/02/20 01:06:54;;;;;;;1.02;0.98;;;6.50;96.00;;;;;;5093801;28;20177;-68
2022/02/20 01:09:21;;;;;;;0.82;0.82;;;6.40;96.30;;;;;;5093805;28;20187;-62
2022/02/20 01:11:46;;;;;;;1.42;1.33;;;6.40;96.50;;;;;;5093804;28;20203;-64
2022/02/20 01:14:12;;;;;;;3.03;1.03;;;6.40;96.70;;;;;;5093214;28;20253;-65
2022/02/20 01:16:38;;;;;;;0.60;0.60;;;6.40;96.60;;;;;;5091635;28;20503;-65
2022/02/20 01:19:04;;;;;;;0.90;0.90;;;6.40;96.70;;;;;;5093612;28;20223;-65
2022/02/20 01:21:30;;;;;;;0.60;0.60;;;6.40;96.90;;;;;;5093661;28;20197;-64
2022/02/20 01:23:56;;;;;;;0.77;0.77;;;6.40;97.10;;;;;;5093367;28;20497;-66
2022/02/20 01:26:22;;;;;;;0.80;0.60;;;6.40;97.20;;;;;;5093714;28;20228;-63
2022/02/20 01:28:47;;;;;;;0.88;0.60;;;6.40;97.20;;;;;;5093762;28;20453;-65
2022/02/20 01:31:13;;;;;;;8.27;1.13;;;6.40;97.30;;;;;;5093598;28;20690;-66
2022/02/20 01:33:39;;;;;;;2.57;0.87;;;6.40;97.30;;;;;;5093254;28;20911;-66
2022/02/20 01:36:05;;;;;;;6.63;0.80;;;6.40;97.40;;;;;;5093697;28;20690;-64
2022/02/20 01:38:30;;;;;;;3.87;1.00;;;6.40;97.60;;;;;;5093861;28;20590;-66
2022/02/20 01:40:56;;;;;;;0.67;0.67;;;6.40;97.80;;;;;;5093693;28;20415;-64
2022/02/20 01:43:23;;;;;;;0.70;0.70;;;6.40;97.80;;;;;;5093222;28;20254;-61
2022/02/20 01:45:49;;;;;;;0.95;0.60;;;6.40;98.00;;;;;;5093532;28;20422;-62
2022/02/20 01:48:15;;;;;;;1.63;0.70;;;6.40;98.20;;;;;;5093477;28;20174;-63
2022/02/20 01:50:42;;;;;;;6.55;0.75;;;6.30;98.10;;;;;;5093258;28;20445;-65
2022/02/20 01:53:08;;;;;;;0.63;0.63;;;6.30;98.20;;;;;;5093211;28;20179;-66
2022/02/20 01:55:35;;;;;;;0.80;0.80;;;6.40;98.40;;;;;;5093425;28;20227;-64
2022/02/20 01:58:01;;;;;;;1.15;0.77;;;6.40;98.40;;;;;;5093509;28;20199;-63
2022/02/20 02:00:29;;;;;;;1.63;0.97;;;6.40;98.30;;;;;;5093548;28;20739;-67
2022/02/20 02:02:55;;;;;;;0.52;0.52;;;6.40;98.40;;;;;;5093018;28;20404;-64
2022/02/20 02:05:21;;;;;;;1.13;0.90;;;6.30;98.60;;;;;;5093003;28;20231;-68
2022/02/20 02:07:49;;;;;;;0.93;0.50;;;6.40;98.60;;;;;;5093098;28;20172;-64
2022/02/20 02:10:14;;;;;;;1.52;0.60;;;6.40;98.70;;;;;;5093283;28;20207;-66
2022/02/20 02:12:40;;;;;;;2.50;0.90;;;6.40;98.60;;;;;;5093078;28;20638;-62
2022/02/20 02:15:09;;;;;;;5.40;0.77;;;6.40;98.70;;;;;;5091680;28;20744;-64
2022/02/20 02:17:35;;;;;;;2.75;0.50;;;6.40;98.70;;;;;;5092943;28;20404;-63
2022/02/20 02:20:02;;;;;;;0.77;0.75;;;6.40;98.70;;;;;;5093082;28;20183;-64
2022/02/20 02:22:29;;;;;;;1.50;0.63;;;6.50;98.80;;;;;;5093277;28;20196;-64
2022/02/20 02:24:57;;;;;;;1.58;0.40;;;6.50;98.90;;;;;;5092669;28;20182;-64
2022/02/20 02:27:23;;;;;;;1.25;0.60;;;6.50;98.80;;;;;;5094431;28;20204;-66
2022/02/20 02:29:50;;;;;;;10.75;1.35;;;6.50;98.90;;;;;;5096828;28;20164;-69
2022/02/20 02:32:16;;;;;;;0.57;0.57;;;6.50;99.00;;;;;;5095384;28;20294;-67
2022/02/20 02:34:45;;;;;;;1.98;0.95;;;6.50;99.10;;;;;;5096471;28;20199;-68
2022/02/20 02:37:11;;;;;;;1.10;0.60;;;6.50;99.20;;;;;;5096778;28;20174;-67
2022/02/20 02:39:38;;;;;;;2.88;0.52;;;6.50;99.10;;;;;;5096859;28;20170;-66
2022/02/20 02:42:05;;;;;;;1.15;1.05;;;6.50;99.10;;;;;;5096484;28;20232;-67
2022/02/20 02:44:31;;;;;;;0.50;0.50;;;6.50;99.40;;;;;;5094821;28;20198;-69
2022/02/20 02:46:57;;;;;;;0.70;0.57;;;6.50;99.30;;;;;;5096476;28;20267;-66
2022/02/20 02:49:26;;;;;;;1.83;0.80;;;6.50;99.30;;;;;;5095216;28;20422;-64
2022/02/20 02:51:52;;;;;;;2.67;0.40;;;6.50;99.10;;;;;;5095271;28;20220;-69
2022/02/20 02:54:18;;;;;;;0.80;0.80;;;6.60;99.30;;;;;;5095912;28;20254;-63
2022/02/20 02:56:48;;;;;;;3.50;0.70;;;6.60;99.30;;;;;;5096399;28;20643;-65
2022/02/20 02:59:15;;;;;;;0.70;0.40;;;6.60;99.50;;;;;;5095290;28;20172;-67
2022/02/20 03:01:42;;;;;;;0.93;0.68;;;6.60;99.60;;;;;;5095242;28;20179;-65
2022/02/20 03:04:07;;;;;;;0.85;0.40;;;6.60;99.90;;;;;;5095670;28;20296;-64
2022/02/20 03:06:33;;;;;;;0.40;0.40;;;6.60;99.90;;;;;;5096484;28;20201;-66
2022/02/20 03:09:00;;;;;;;2.73;0.70;;;6.60;99.90;;;;;;5096030;28;20256;-65
2022/02/20 03:11:25;;;;;;;0.55;0.55;;;6.50;99.90;;;;;;5096091;28;20184;-65
2022/02/20 03:13:51;;;;;;;0.70;0.70;;;6.60;99.90;;;;;;5095675;28;20630;-67
2022/02/20 03:16:17;;;;;;;1.80;0.50;;;6.60;99.90;;;;;;5096090;28;20413;-65
2022/02/20 03:18:42;;;;;;;2.13;1.00;;;6.60;99.90;;;;;;5095916;28;20646;-67
2022/02/20 03:21:09;;;;;;;0.80;0.60;;;6.60;99.90;;;;;;5095910;28;20174;-62
2022/02/20 03:23:35;;;;;;;0.75;0.75;;;6.70;99.90;;;;;;5095563;28;20506;-66
2022/02/20 03:26:01;;;;;;;1.17;0.63;;;6.60;99.90;;;;;;5095681;28;20280;-64
2022/02/20 03:28:27;;;;;;;0.60;0.60;;;6.60;99.90;;;;;;5095892;28;20262;-65
2022/02/20 03:30:53;;;;;;;0.50;0.50;;;6.70;99.90;;;;;;5095546;28;20192;-64
2022/02/20 03:33:19;;;;;;;0.90;0.90;;;6.60;99.90;;;;;;5095156;28;20172;-63
2022/02/20 03:35:45;;;;;;;0.50;0.50;;;6.70;99.90;;;;;;5095478;28;20195;-61
2022/02/20 03:38:12;;;;;;;1.15;0.82;;;6.70;99.90;;;;;;5094825;28;20164;-66
2022/02/20 03:40:38;;;;;;;0.82;0.82;;;6.70;99.90;;;;;;5095613;28;20166;-65
2022/02/20 03:43:04;;;;;;;0.40;0.40;;;6.70;99.90;;;;;;5095138;28;20165;-65
2022/02/20 03:45:30;;;;;;;5.10;0.68;;;6.70;99.90;;;;;;5095350;28;20189;-65
2022/02/20 03:47:57;;;;;;;1.15;0.85;;;6.80;99.90;;;;;;5095662;28;20176;-65
2022/02/20 03:50:23;;;;;;;0.75;0.75;;;6.80;99.90;;;;;;5095378;28;20216;-66
2022/02/20 03:52:50;;;;;;;1.42;0.70;;;6.70;99.90;;;;;;5098326;28;20169;-64
2022/02/20 03:55:17;;;;;;;1.33;0.60;;;6.80;99.90;;;;;;5100266;28;20239;-65
2022/02/20 03:57:43;;;;;;;0.50;0.50;;;6.80;99.90;;;;;;5099936;28;20182;-67
2022/02/20 04:00:15;;;;;;;3.72;0.50;;;6.80;99.90;;;;;;5102237;28;20168;-64
2022/02/20 04:02:41;;;;;;;0.80;0.80;;;6.90;99.90;;;;;;5101117;28;20228;-63
2022/02/20 04:05:08;;;;;;;4.07;1.13;;;6.90;99.90;;;;;;5101198;28;20298;-65
2022/02/20 04:07:35;;;;;;;0.65;0.65;;;6.80;99.90;;;;;;5099089;28;20178;-68
2022/02/20 04:10:05;;;;;;;0.50;0.50;;;6.90;99.90;;;;;;5102052;28;20184;-67
2022/02/20 04:12:31;;;;;;;0.95;0.93;;;6.80;99.90;;;;;;5095814;28;20527;-64
2022/02/20 04:14:57;;;;;;;0.80;0.80;;;6.90;99.90;;;;;;5094842;28;20187;-68
2022/02/20 04:17:24;;;;;;;0.50;0.50;;;6.90;99.90;;;;;;5094686;28;20426;-63
2022/02/20 04:19:51;;;;;;;0.70;0.70;;;6.80;99.90;;;;;;5094822;28;20302;-65
2022/02/20 04:22:17;;;;;;;0.98;0.77;;;6.90;99.90;;;;;;5094734;28;20180;-63
2022/02/20 04:24:44;;;;;;;0.60;0.60;;;6.80;99.90;;;;;;5094190;28;20700;-66
2022/02/20 04:27:10;;;;;;;0.30;0.30;;;6.90;99.90;;;;;;5094554;28;20183;-64
2022/02/20 04:29:36;;;;;;;0.75;0.75;;;6.80;99.90;;;;;;5093347;28;20546;-65
2022/02/20 04:32:02;;;;;;;0.50;0.50;;;6.80;99.90;;;;;;5094433;28;20199;-66
2022/02/20 04:34:28;;;;;;;0.40;0.35;;;6.80;99.90;;;;;;5093928;28;20184;-67
2022/02/20 04:36:54;;;;;;;0.50;0.50;;;6.90;99.90;;;;;;5094301;28;20175;-65
2022/02/20 04:39:19;;;;;;;0.63;0.43;;;6.80;99.90;;;;;;5094563;28;20227;-64
2022/02/20 04:41:46;;;;;;;0.50;0.40;;;6.80;99.90;;;;;;5094435;28;20178;-66
2022/02/20 04:44:12;;;;;;;0.60;0.40;;;6.80;99.90;;;;;;5093797;28;20932;-64
2022/02/20 04:46:38;;;;;;;0.60;0.60;;;6.80;99.90;;;;;;5094337;28;20168;-64
2022/02/20 04:49:05;;;;;;;1.00;0.47;;;6.80;99.90;;;;;;5094367;28;20179;-63
2022/02/20 04:51:33;;;;;;;2.83;0.73;;;6.80;99.90;;;;;;5094221;28;20199;-63
2022/02/20 04:53:59;;;;;;;0.30;0.30;;;6.70;99.90;;;;;;5093630;28;20197;-64
2022/02/20 04:56:25;;;;;;;1.30;0.40;;;6.70;99.90;;;;;;5094314;28;20611;-64
2022/02/20 04:58:51;;;;;;;0.85;0.52;;;6.70;99.90;;;;;;5094084;28;20193;-65
2022/02/20 05:01:17;;;;;;;0.40;0.40;;;6.70;99.90;;;;;;5094084;28;20204;-65
2022/02/20 05:03:43;;;;;;;0.30;0.30;;;6.70;99.90;;;;;;5093448;28;20264;-65
2022/02/20 05:06:08;;;;;;;0.40;0.40;;;6.60;99.90;;;;;;5094062;28;20540;-63
2022/02/20 05:08:35;;;;;;;0.50;0.50;;;6.60;99.90;;;;;;5094086;28;20526;-67
2022/02/20 05:11:00;;;;;;;0.60;0.40;;;6.60;99.90;;;;;;5093939;28;20287;-62
2022/02/20 05:13:26;;;;;;;4.03;0.63;;;6.60;99.90;;;;;;5093754;28;20573;-67
2022/02/20 05:15:51;;;;;;;1.47;0.53;;;6.60;99.90;;;;;;5092400;28;20272;-62
2022/02/20 05:18:17;;;;;;;0.43;0.43;;;6.60;99.90;;;;;;5093762;28;20199;-66
2022/02/20 05:20:43;;;;;;;0.80;0.80;;;6.60;99.90;;;;;;5093792;28;20199;-64
2022/02/20 05:23:10;;;;;;;0.30;0.30;;;6.60;99.90;;;;;;5093284;28;20171;-66
2022/02/20 05:25:35;;;;;;;0.50;0.50;;;6.50;99.90;;;;;;5093500;28;20238;-66
2022/02/20 05:28:01;;;;;;;0.40;0.40;;;6.60;99.90;;;;;;5093608;28;20182;-67
2022/02/20 05:30:27;;;;;;;0.73;0.73;;;6.60;99.90;;;;;;5093568;28;20688;-66
2022/02/20 05:32:53;;;;;;;0.43;0.43;;;6.60;99.90;;;;;;5093397;28;20255;-64
2022/02/20 05:35:19;;;;;;;0.50;0.50;;;6.50;99.90;;;;;;5093614;28;20189;-68
2022/02/20 05:37:50;;;;;;;0.60;0.60;;;6.50;99.90;;;;;;5093656;28;20212;-64
2022/02/20 05:40:22;;;;;;;0.30;0.30;;;6.50;99.90;;;;;;5095300;28;20160;-66
2022/02/20 05:42:48;;;;;;;0.65;0.65;;;6.50;99.90;;;;;;5106010;28;20533;-63
2022/02/20 05:45:13;;;;;;;1.27;1.27;;;6.60;99.90;;;;;;5097350;28;20197;-66
2022/02/20 05:47:39;;;;;;;3.30;0.50;;;6.60;99.90;;;;;;5093959;28;20456;-65
2022/02/20 05:50:08;;;;;;;0.60;0.50;;;6.60;99.90;;;;;;5093496;28;20224;-65
2022/02/20 05:52:34;;;;;;;0.47;0.47;;;6.50;99.90;;;;;;5093652;28;20530;-62
2022/02/20 05:54:59;;;;;;;0.60;0.50;;;6.50;99.90;;;;;;5093358;28;20188;-67
2022/02/20 05:57:25;;;;;;;0.70;0.50;;;6.50;99.90;;;;;;5093517;28;20408;-64
2022/02/20 05:59:51;;;;;;;1.00;0.70;;;6.50;99.90;;;;;;5093482;28;20324;-66
2022/02/20 06:02:16;;;;;;;6.00;0.87;;;6.50;99.90;;;;;;5095891;28;20173;-66
2022/02/20 06:04:42;;;;;;;0.77;0.50;;;6.50;99.90;;;;;;5096951;28;20211;-66
2022/02/20 06:07:09;;;;;;;0.70;0.70;;;6.50;99.90;;;;;;5097529;28;20682;-64
2022/02/20 06:09:35;;;;;;;0.50;0.47;;;6.50;99.90;;;;;;5097390;28;20561;-65
2022/02/20 06:12:01;;;;;;;0.68;0.50;;;6.50;99.90;;;;;;5097092;28;20200;-65
2022/02/20 06:14:27;;;;;;;2.10;1.93;;;6.50;99.90;;;;;;5096666;28;20322;-64
2022/02/20 06:16:52;;;;;;;0.40;0.40;;;6.50;99.90;;;;;;5097172;28;20410;-67
2022/02/20 06:19:18;;;;;;;0.33;0.33;;;6.50;99.90;;;;;;5095695;28;20171;-65
2022/02/20 06:21:44;;;;;;;0.80;0.50;;;6.50;99.90;;;;;;5097169;28;20267;-67
2022/02/20 06:24:09;;;;;;;0.60;0.60;;;6.50;99.90;;;;;;5096787;28;20561;-63
2022/02/20 06:26:35;;;;;;;1.27;0.80;;;6.50;99.90;;;;;;5096928;28;20175;-68
2022/02/20 06:29:00;;;;;;;0.40;0.40;;;6.60;99.90;;;;;;5096955;28;20184;-65
2022/02/20 06:31:26;;;;;;;0.50;0.30;;;6.60;99.90;;;;;;5096561;28;20209;-66
2022/02/20 06:33:52;;;;;;;0.90;0.90;;;6.60;99.90;;;;;;5096356;28;20166;-66
2022/02/20 06:36:20;;;;;;;0.98;0.47;;;6.60;99.90;;;;;;5096857;28;20314;-65
2022/02/20 06:38:47;;;;;;;0.65;0.65;;;6.70;99.90;;;;;;5096818;28;20534;-66
2022/02/20 06:41:12;;;;;;;0.45;0.45;;;6.70;99.90;;;;;;5096773;28;20183;-65
2022/02/20 06:43:38;;;;;;;0.67;0.67;;;6.70;99.90;;;;;;5096324;28;20170;-67
2022/02/20 06:46:04;;;;;;;0.50;0.50;;;6.70;99.90;;;;;;5096349;28;20435;-66
2022/02/20 06:48:30;;;;;;;0.60;0.47;;;6.70;99.90;;;;;;5096322;28;20402;-67
2022/02/20 06:50:56;;;;;;;0.55;0.50;;;6.80;99.90;;;;;;5096331;28;20450;-65
2022/02/20 06:53:22;;;;;;;0.50;0.50;;;6.70;99.90;;;;;;5095991;28;20176;-68
2022/02/20 06:55:47;;;;;;;0.70;0.70;;;6.80;99.90;;;;;;5096508;28;20256;-63
2022/02/20 06:58:13;;;;;;;0.30;0.30;;;6.80;99.90;;;;;;5096207;28;20532;-67
2022/02/20 07:00:39;;;;;;;0.40;0.40;;;6.90;99.90;;;;;;5096303;28;20263;-64
2022/02/20 07:03:04;;;;;;;0.30;0.30;;;6.90;99.90;;;;;;5095910;28;20510;-67
2022/02/20 07:05:30;;;;;;;1.90;0.73;;;7.00;99.90;;;;;;5096217;28;20622;-66
2022/02/20 07:07:57;;;;;;;0.40;0.40;;;7.00;99.90;;;;;;5096593;28;20628;-66
2022/02/20 07:10:23;;;;;;;0.40;0.35;;;7.00;99.90;;;;;;5096088;28;20193;-64
2022/02/20 07:12:49;;;;;;;0.67;0.47;;;7.00;99.90;;;;;;5094569;28;20175;-64
2022/02/20 07:15:15;;;;;;;0.93;0.50;;;7.00;99.90;;;;;;5095812;28;20457;-67
2022/02/20 07:17:40;;;;;;;2.77;0.50;;;7.00;99.90;;;;;;5096045;28;20268;-63
2022/02/20 07:20:07;;;;;;;0.30;0.30;;;7.10;99.90;;;;;;5095865;28;20390;-68
2022/02/20 07:22:33;;;;;;;0.30;0.30;;;7.10;99.90;;;;;;5095887;28;20223;-64
2022/02/20 07:25:00;;;;;;;0.40;0.40;;;7.10;99.90;;;;;;5095462;28;20631;-65
2022/02/20 07:27:25;;;;;;;0.40;0.40;;;7.10;99.90;;;;;;5095846;28;20174;-65
2022/02/20 07:29:51;;;;;;;0.67;0.30;;;7.20;99.90;;;;;;5095865;28;20238;-63
2022/02/20 07:32:17;;;;;;;1.20;1.20;;;7.20;99.90;;;;;;5095663;28;20548;-65
2022/02/20 07:34:42;;;;;;;0.50;0.50;;;7.30;99.90;;;;;;5093937;28;20191;-66
2022/02/20 07:37:08;;;;;;;2.30;1.07;;;7.30;99.90;;;;;;5095543;28;20175;-66
2022/02/20 07:39:33;;;;;;;0.43;0.40;;;7.30;99.90;;;;;;5095424;28;20190;-64
2022/02/20 07:41:59;;;;;;;0.40;0.40;;;7.40;99.90;;;;;;5095446;28;20170;-66
2022/02/20 07:44:25;;;;;;;0.80;0.80;;;7.50;99.90;;;;;;5093598;28;20695;-65
2022/02/20 07:46:51;;;;;;;0.40;0.40;;;7.50;99.90;;;;;;5094239;28;20448;-68
2022/02/20 07:49:18;;;;;;;1.48;0.63;;;7.60;99.90;;;;;;5094847;28;20173;-64
2022/02/20 07:51:43;;;;;;;0.50;0.50;;;7.70;99.90;;;;;;5094980;28;20561;-65
2022/02/20 07:54:10;;;;;;;0.90;0.90;;;7.70;99.90;;;;;;5093719;28;20203;-63
2022/02/20 07:56:36;;;;;;;0.30;0.30;;;7.80;99.90;;;;;;5093878;28;20163;-65
2022/02/20 07:59:02;;;;;;;0.30;0.30;;;7.90;99.90;;;;;;5094228;28;20931;-64
2022/02/20 08:01:31;;;;;;;0.50;0.40;;;8.00;99.90;;;;;;5094932;28;20176;-65
2022/02/20 08:03:57;;;;;;;1.60;0.60;;;8.00;99.90;;;;;;5094359;28;20191;-62
2022/02/20 08:06:24;;;;;;;2.20;0.60;;;8.10;99.90;;;;;;5094649;28;20175;-65
2022/02/20 08:08:49;;;;;;;0.50;0.50;;;8.10;99.90;;;;;;5094769;28;20996;-66
2022/02/20 08:11:17;;;;;;;5.40;0.70;;;8.20;99.90;;;;;;5093220;28;20287;-65
2022/02/20 08:13:43;;;;;;;1.90;0.55;;;8.20;99.90;;;;;;5094283;28;20240;-66
2022/02/20 08:16:09;;;;;;;0.60;0.43;;;8.30;99.90;;;;;;5093459;28;20205;-65
2022/02/20 08:18:35;;;;;;;1.80;0.80;;;8.50;99.90;;;;;;5094735;28;20207;-64
2022/02/20 08:21:01;;;;;;;0.70;0.70;;;8.50;99.90;;;;;;5094657;28;20176;-64
2022/02/20 08:23:26;;;;;;;1.33;1.23;;;8.60;99.90;;;;;;5094308;28;20633;-65
2022/02/20 08:25:52;;;;;;;0.67;0.67;;;8.80;99.90;;;;;;5092847;28;20196;-64
2022/02/20 08:28:18;;;;;;;0.50;0.50;;;8.90;99.90;;;;;;5094511;28;20164;-64
2022/02/20 08:30:44;;;;;;;1.40;0.50;;;9.00;99.90;;;;;;5094471;28;20623;-62
2022/02/20 08:33:10;;;;;;;5.70;1.63;;;9.10;99.90;;;;;;5094070;28;20199;-65
2022/02/20 08:35:35;;;;;;;0.82;0.82;;;9.20;99.90;;;;;;5094168;28;20188;-64
2022/02/20 08:38:04;;;;;;;1.13;0.73;;;9.40;99.90;;;;;;5094134;28;20595;-64
2022/02/20 08:40:30;;;;;;;0.47;0.47;;;9.40;99.90;;;;;;5093908;28;20179;-66
2022/02/20 08:42:56;;;;;;;0.50;0.50;;;9.40;99.90;;;;;;5093876;28;20176;-62
2022/02/20 08:45:22;;;;;;;0.40;0.40;;;9.40;99.90;;;;;;5093993;28;20646;-66
2022/02/20 08:47:48;;;;;;;0.50;0.43;;;9.40;99.90;;;;;;5094064;28;20502;-66
2022/02/20 08:50:14;;;;;;;0.50;0.50;;;9.30;99.90;;;;;;5091692;28;20759;-65
2022/02/20 08:52:41;;;;;;;1.20;0.50;;;9.30;99.90;;;;;;5088966;28;20183;-66
2022/02/20 08:55:08;;;;;;;0.40;0.40;;;9.40;99.90;;;;;;5092022;28;20188;-63
2022/02/20 08:57:34;;;;;;;0.50;0.50;;;9.40;99.90;;;;;;5091745;28;20176;-65
2022/02/20 09:00:01;;;;;;;0.90;0.70;;;9.50;99.90;;;;;;5092030;28;20175;-65
2022/02/20 09:02:28;;;;;;;0.40;0.40;;;9.50;99.90;;;;;;5092072;28;20211;-67
2022/02/20 09:04:53;;;;;;;0.45;0.45;;;9.50;99.90;;;;;;5091685;28;20215;-65
2022/02/20 09:07:20;;;;;;;0.60;0.60;;;9.50;99.90;;;;;;5090862;28;20243;-66
2022/02/20 09:09:46;;;;;;;0.93;0.60;;;9.50;99.90;;;;;;5091962;28;20196;-65
2022/02/20 09:12:12;;;;;;;0.73;0.70;;;9.50;99.90;;;;;;5093269;28;20675;-62
2022/02/20 09:14:37;;;;;;;0.40;0.40;;;9.50;99.90;;;;;;5092984;28;20592;-62
2022/02/20 09:17:03;;;;;;;0.67;0.67;;;9.50;99.90;;;;;;5092922;28;20173;-66
2022/02/20 09:19:29;;;;;;;3.60;1.33;;;9.50;99.90;;;;;;5092213;28;20668;-65
2022/02/20 09:21:55;;;;;;;0.50;0.43;;;9.50;99.90;;;;;;5090902;28;20406;-64
2022/02/20 09:24:21;;;;;;;0.60;0.50;;;9.50;99.90;;;;;;5091988;28;20274;-62
2022/02/20 09:26:47;;;;;;;3.95;0.82;;;9.50;99.90;;;;;;5092630;28;20649;-66
2022/02/20 09:29:13;;;;;;;0.70;0.47;;;9.50;99.90;;;;;;5091835;28;20172;-63
2022/02/20 09:31:39;;;;;;;1.25;0.88;;;9.50;99.90;;;;;;5092670;28;20604;-65
2022/02/20 09:34:05;;;;;;;0.50;0.50;;;9.70;99.90;;;;;;5092400;28;20607;-65
2022/02/20 09:36:32;;;;;;;0.40;0.30;;;9.60;99.90;;;;;;5092465;28;20255;-67
2022/02/20 09:38:58;;;;;;;0.75;0.60;;;9.80;99.90;;;;;;5092906;28;20175;-63
2022/02/20 09:41:29;;;;;;;3.13;1.03;;;9.80;99.90;;;;;;5093095;28;20278;-64
2022/02/20 09:43:56;;;;;;;0.40;0.40;;;9.90;99.90;;;;;;5092982;28;20513;-63
2022/02/20 09:46:22;;;;;;;0.50;0.40;;;9.80;99.90;;;;;;5093088;28;20172;-65
2022/02/20 09:48:51;;;;;;;1.15;0.40;;;9.80;99.90;;;;;;5093319;28;20646;-65
2022/02/20 09:51:17;;;;;;;0.68;0.40;;;9.80;99.90;;;;;;5093058;28;20200;-67
2022/02/20 09:53:43;;;;;;;0.50;0.50;;;9.80;99.90;;;;;;5092730;28;20172;-64
2022/02/20 09:56:09;;;;;;;0.60;0.60;;;9.80;99.90;;;;;;5090720;28;20422;-65
2022/02/20 09:58:35;;;;;;;0.83;0.60;;;9.80;99.90;;;;;;5092834;28;20528;-65
2022/02/20 10:01:09;;;;;;;0.50;0.50;;;9.80;99.90;;;;;;5091076;28;20482;-65
2022/02/20 10:03:39;;;;;;;0.40;0.40;;;9.80;99.90;;;;;;5092153;28;20660;-69
2022/02/20 10:06:09;;;;;;;0.43;0.43;;;9.70;99.90;;;;;;5092717;28;20519;-68
2022/02/20 10:08:44;;;;;;;0.55;0.52;;;9.70;99.90;;;;;;5092423;28;20241;-71
2022/02/20 10:11:20;;;;;;;0.50;0.50;;;9.80;99.90;;;;;;5092550;28;20232;-68
2022/02/20 10:13:48;;;;;;;0.90;0.60;;;9.90;99.90;;;;;;5092083;28;20172;-69
2022/02/20 10:16:22;;;;;;;0.60;0.60;;;10.00;99.90;;;;;;5092371;28;20269;-67
2022/02/20 10:18:49;;;;;;;0.43;0.43;;;10.20;99.90;;;;;;5092754;28;20612;-67
2022/02/20 10:21:29;;;;;;;0.82;0.40;;;10.20;99.60;;;;;;5091023;28;20180;-65
2022/02/20 10:24:05;;;;;;;0.47;0.40;;;10.20;99.70;;;;;;5091914;28;20218;-69
2022/02/20 10:26:33;;;;;;;0.77;0.68;;;10.30;99.40;;;;;;5092473;28;20238;-66
2022/02/20 10:29:01;;;;;;;0.40;0.40;;;10.30;99.30;;;;;;5091831;28;20168;-68
2022/02/20 10:31:45;;;;;;;0.30;0.30;;;10.40;99.30;;;;;;5092063;28;20549;-66
2022/02/20 10:34:14;;;;;;;1.10;0.50;;;10.50;99.30;;;;;;5084980;28;20187;-69
2022/02/20 10:36:51;;;;;;;0.63;0.63;;;10.50;99.00;;;;;;5086256;28;20168;-67
2022/02/20 10:39:36;;;;;;;0.50;0.50;;;10.50;98.90;;;;;;5087318;28;20633;-68
2022/02/20 10:42:16;;;;;;;0.80;0.80;;;10.60;98.80;;;;;;5087346;28;20173;-66
2022/02/20 10:44:56;;;;;;;0.83;0.80;;;10.90;98.80;;;;;;5088557;28;20635;-68
2022/02/20 10:47:23;;;;;;;0.50;0.50;;;11.20;98.70;;;;;;5092757;28;20432;-68
2022/02/20 10:49:50;;;;;;;2.93;0.70;;;11.30;98.10;;;;;;5095638;28;20466;-67
2022/02/20 10:52:27;;;;;;;1.87;0.63;;;11.40;98.00;;;;;;5095760;28;20964;-68
2022/02/20 10:55:05;;;;;;;1.53;0.70;;;11.60;97.80;;;;;;5093691;28;20443;-66
2022/02/20 10:57:39;;;;;;;0.60;0.60;;;11.60;97.60;;;;;;5096193;28;20397;-68
2022/02/20 11:00:34;;;;;;;0.50;0.30;;;11.60;97.30;;;;;;5095371;28;20465;-68
2022/02/20 11:03:08;;;;;;;0.50;0.47;;;11.80;97.30;;;;;;5095137;28;20500;-66
2022/02/20 11:05:38;;;;;;;0.37;0.37;;;11.80;97.40;;;;;;5095410;28;21060;-69
2022/02/20 11:08:05;;;;;;;0.30;0.30;;;11.90;97.10;;;;;;5095201;28;20421;-69
2022/02/20 11:10:32;;;;;;;0.40;0.40;;;11.90;97.10;;;;;;5095522;28;20413;-69
2022/02/20 11:12:59;;;;;;;0.77;0.40;;;11.90;97.00;;;;;;5094852;28;20417;-68
2022/02/20 11:15:26;;;;;;;0.30;0.30;;;12.00;96.40;;;;;;5093514;28;20444;-68
2022/02/20 11:17:55;;;;;;;0.40;0.40;;;11.90;96.40;;;;;;5094773;28;20419;-67
2022/02/20 11:20:22;;;;;;;0.30;0.30;;;11.80;97.00;;;;;;5094703;28;20417;-68
2022/02/20 11:22:52;;;;;;;0.40;0.30;;;11.80;97.20;;;;;;5094971;28;20498;-66
2022/02/20 11:25:19;;;;;;;0.43;0.43;;;11.80;97.10;;;;;;5094845;28;20821;-68
2022/02/20 11:27:46;;;;;;;0.53;0.37;;;11.90;97.30;;;;;;5095312;28;20974;-69
2022/02/20 11:30:12;;;;;;;0.30;0.30;;;12.00;96.90;;;;;;5094867;28;20441;-71
2022/02/20 11:32:41;;;;;;;1.03;0.60;;;12.00;96.90;;;;;;5112840;28;20467;-69
2022/02/20 11:35:13;;;;;;;1.40;1.30;;;12.00;96.60;;;;;;5112801;28;20675;-69
2022/02/20 11:37:56;;;;;;;0.50;0.50;;;12.00;96.80;;;;;;5113041;28;20420;-69
2022/02/20 11:40:22;;;;;;;1.00;1.00;;;11.90;96.70;;;;;;5112369;28;20458;-70
2022/02/20 11:43:00;;;;;;;0.47;0.37;;;11.70;96.80;;;;;;5110867;28;20929;-70
2022/02/20 11:45:31;;;;;;;0.40;0.40;;;11.80;96.90;;;;;;5112628;28;20512;-71
2022/02/20 11:48:08;;;;;;;1.00;0.50;;;11.80;97.00;;;;;;5112156;28;20423;-69
2022/02/20 11:50:43;;;;;;;1.37;0.80;;;11.80;97.00;;;;;;5112903;28;20554;-69
2022/02/20 11:53:11;;;;;;;0.50;0.50;;;11.70;97.10;;;;;;5112638;28;20423;-69
2022/02/20 11:55:44;;;;;;;0.50;0.50;;;11.80;97.10;;;;;;5112117;28;20437;-69
2022/02/20 11:58:21;;;;;;;0.40;0.40;;;11.70;97.20;;;;;;5112795;28;20432;-69
2022/02/20 12:00:56;;;;;;;0.30;0.30;;;11.70;97.00;;;;;;5111985;28;20413;-69
2022/02/20 12:03:23;;;;;;;0.40;0.40;;;11.70;97.10;;;;;;5105124;28;20506;-68
2022/02/20 12:06:07;;;;;;;0.80;0.80;;;11.60;97.20;;;;;;5092568;28;20436;-68
2022/02/20 12:08:38;;;;;;;0.50;0.50;;;11.70;97.30;;;;;;5092688;28;20431;-70
2022/02/20 12:11:19;;;;;;;0.30;0.30;;;11.70;97.10;;;;;;5093003;28;20530;-70
2022/02/20 12:13:59;;;;;;;0.47;0.30;;;11.60;96.90;;;;;;5093409;28;20407;-69
2022/02/20 12:16:34;;;;;;;0.50;0.50;;;11.70;97.10;;;;;;5093580;28;20431;-70
2022/02/20 12:19:06;;;;;;;1.50;0.47;;;11.70;97.00;;;;;;5093463;28;20411;-70
2022/02/20 12:21:53;;;;;;;0.40;0.40;;;11.70;97.00;;;;;;5093397;28;20411;-70
2022/02/20 12:24:22;;;;;;;1.23;1.23;;;11.80;97.00;;;;;;5093923;28;20442;-71
2022/02/20 12:26:58;;;;;;;0.50;0.50;;;11.90;97.20;;;;;;5094340;28;20435;-68
2022/02/20 12:29:38;;;;;;;4.43;0.70;;;11.90;96.80;;;;;;5093221;28;20889;-69
2022/02/20 12:32:12;;;;;;;0.50;0.50;;;11.80;97.00;;;;;;5094327;28;20425;-69
2022/02/20 12:35:08;;;;;;;0.73;0.50;;;11.90;97.10;;;;;;5093946;28;20418;-67
2022/02/20 12:37:38;;;;;;;0.80;0.43;;;11.90;97.00;;;;;;5094459;28;20395;-72
2022/02/20 12:40:06;;;;;;;0.40;0.40;;;11.80;97.30;;;;;;5094476;28;20408;-70
2022/02/20 12:42:35;;;;;;;0.98;0.88;;;11.80;97.20;;;;;;5094161;28;20592;-73
2022/02/20 12:45:07;;;;;;;0.50;0.50;;;11.90;97.40;;;;;;5093577;28;20209;-69
2022/02/20 12:47:34;;;;;;;1.17;0.77;;;11.90;97.10;;;;;;5094043;28;20792;-70
2022/02/20 12:50:00;;;;;;;1.07;0.77;;;11.90;97.20;;;;;;5093930;28;20443;-71
2022/02/20 12:52:32;;;;;;;0.47;0.47;;;12.00;97.10;;;;;;5093915;28;20487;-70
2022/02/20 12:54:58;;;;;;;0.30;0.30;;;11.90;97.00;;;;;;5093591;28;20181;-68
2022/02/20 12:57:27;;;;;;;0.53;0.30;;;11.80;97.20;;;;;;5093847;28;20409;-72